createdAt,value
2023-01-25T00:00:30.823Z,14.40
2023-01-25T00:02:57.585Z,11.88
2023-01-25T00:05:24.394Z,12.10
2023-01-25T00:07:50.963Z,12.38
2023-01-25T00:10:17.724Z,10.30
2023-01-25T00:12:44.311Z,13.98
2023-01-25T00:15:11.361Z,12.75
2023-01-25T00:17:38.166Z,12.45
2023-01-25T00:20:05.262Z,10.90
2023-01-25T00:22:31.883Z,11.65
2023-01-25T00:24:58.439Z,12.43
2023-01-25T00:27:25.011Z,12.55
2023-01-25T00:29:51.594Z,11.43
2023-01-25T00:32:21.372Z,12.27
2023-01-25T00:34:49.676Z,13.55
2023-01-25T00:37:51.644Z,13.48
2023-01-25T00:40:18.642Z,14.50
2023-01-25T00:42:45.741Z,11.38
2023-01-25T00:45:13.127Z,12.85
2023-01-25T00:47:39.852Z,13.75
2023-01-25T00:50:07.806Z,13.00
2023-01-25T00:52:34.531Z,14.43
2023-01-25T00:55:01.166Z,12.13
2023-01-25T00:57:27.744Z,12.05
2023-01-25T00:59:54.357Z,15.30
2023-01-25T01:02:21.065Z,14.15
2023-01-25T01:04:47.834Z,13.32
2023-01-25T01:07:15.725Z,15.27
2023-01-25T01:09:42.465Z,11.60
2023-01-25T01:12:09.177Z,13.32
2023-01-25T01:14:35.974Z,11.23
2023-01-25T01:17:02.659Z,12.75
2023-01-25T01:19:29.349Z,11.32
2023-01-25T01:21:55.925Z,10.07
2023-01-25T01:24:22.537Z,14.52
2023-01-25T01:26:49.130Z,15.50
2023-01-25T01:29:15.791Z,15.70
2023-01-25T01:31:42.483Z,11.38
2023-01-25T01:34:12.659Z,11.32
2023-01-25T01:36:39.243Z,11.55
2023-01-25T01:39:06.084Z,12.80
2023-01-25T01:41:32.718Z,11.10
2023-01-25T01:43:59.265Z,12.98
2023-01-25T01:46:38.402Z,14.68
2023-01-25T01:49:12.689Z,13.25
2023-01-25T01:51:57.522Z,12.68
2023-01-25T01:54:36.223Z,11.27
2023-01-25T01:57:28.947Z,11.15
2023-01-25T02:00:25.187Z,11.85
2023-01-25T02:02:51.945Z,10.68
2023-01-25T02:05:30.228Z,12.77
2023-01-25T02:07:57.734Z,11.95
2023-01-25T02:10:26.523Z,12.32
2023-01-25T02:12:55.586Z,14.25
2023-01-25T02:15:22.202Z,13.02
2023-01-25T02:17:50.053Z,10.70
2023-01-25T02:20:27.485Z,13.40
2023-01-25T02:23:03.604Z,10.93
2023-01-25T02:25:30.566Z,10.13
2023-01-25T02:28:22.944Z,12.95
2023-01-25T02:30:49.596Z,11.43
2023-01-25T02:33:16.369Z,9.93
2023-01-25T02:35:53.794Z,12.27
2023-01-25T02:38:21.295Z,12.57
2023-01-25T02:40:55.787Z,14.00
2023-01-25T02:43:24.710Z,10.95
2023-01-25T02:45:58.273Z,10.02
2023-01-25T02:48:24.932Z,11.65
2023-01-25T02:50:51.542Z,10.35
2023-01-25T02:53:18.122Z,11.93
2023-01-25T02:55:45.218Z,11.27
2023-01-25T02:58:11.805Z,12.02
2023-01-25T03:00:38.546Z,9.88
2023-01-25T03:03:05.126Z,10.80
2023-01-25T03:05:32.983Z,11.80
2023-01-25T03:07:59.563Z,13.68
2023-01-25T03:10:26.190Z,13.38
2023-01-25T03:12:53.542Z,12.73
2023-01-25T03:15:20.108Z,11.32
2023-01-25T03:17:46.675Z,11.93
2023-01-25T03:20:13.299Z,14.35
2023-01-25T03:22:39.903Z,12.02
2023-01-25T03:25:07.530Z,11.98
2023-01-25T03:27:34.323Z,11.30
2023-01-25T03:30:01.035Z,11.77
2023-01-25T03:32:27.650Z,11.98
2023-01-25T03:34:54.280Z,13.48
2023-01-25T03:37:21.555Z,12.40
2023-01-25T03:39:48.183Z,12.00
2023-01-25T03:42:15.227Z,14.07
2023-01-25T03:44:41.850Z,12.68
2023-01-25T03:47:08.434Z,12.60
2023-01-25T03:49:35.029Z,15.07
2023-01-25T03:52:01.681Z,13.60
2023-01-25T03:54:28.338Z,12.57
2023-01-25T03:56:54.977Z,13.10
2023-01-25T03:59:21.630Z,10.13
2023-01-25T04:01:48.335Z,10.90
2023-01-25T04:04:15.066Z,12.95
2023-01-25T04:06:41.651Z,13.93
2023-01-25T04:09:08.469Z,13.73
2023-01-25T04:11:35.234Z,13.10
2023-01-25T04:14:01.785Z,13.52
2023-01-25T04:16:30.425Z,12.55
2023-01-25T04:18:57.212Z,12.50
2023-01-25T04:21:24.114Z,10.35
2023-01-25T04:23:50.817Z,12.43
2023-01-25T04:26:17.461Z,12.18
2023-01-25T04:28:44.209Z,12.13
2023-01-25T04:31:11.225Z,11.57
2023-01-25T04:33:37.826Z,12.05
2023-01-25T04:36:04.792Z,10.77
2023-01-25T04:38:31.412Z,11.60
2023-01-25T04:40:58.079Z,8.80
2023-01-25T04:43:26.100Z,11.45
2023-01-25T04:45:52.873Z,12.55
2023-01-25T04:48:19.538Z,9.65
2023-01-25T04:50:46.293Z,11.73
2023-01-25T04:53:13.236Z,11.48
2023-01-25T04:55:40.227Z,13.20
2023-01-25T04:58:06.944Z,12.32
2023-01-25T05:00:33.703Z,12.02
2023-01-25T05:03:00.315Z,11.82
2023-01-25T05:05:27.070Z,12.73
2023-01-25T05:07:53.686Z,11.60
2023-01-25T05:10:20.914Z,13.00
2023-01-25T05:12:47.577Z,12.23
2023-01-25T05:15:14.587Z,14.13
2023-01-25T05:17:41.167Z,12.23
2023-01-25T05:20:08.320Z,12.05
2023-01-25T05:22:34.975Z,9.80
2023-01-25T05:25:02.824Z,12.20
2023-01-25T05:27:29.399Z,11.23
2023-01-25T05:29:57.527Z,10.80
2023-01-25T05:32:24.552Z,12.00
2023-01-25T05:34:51.651Z,10.73
2023-01-25T05:37:21.095Z,10.70
2023-01-25T05:39:48.020Z,9.88
2023-01-25T05:42:17.597Z,11.90
2023-01-25T05:44:47.304Z,13.43
2023-01-25T05:47:16.262Z,12.00
2023-01-25T05:49:43.193Z,15.95
2023-01-25T05:52:18.945Z,12.70
2023-01-25T05:54:45.589Z,11.93
2023-01-25T05:57:14.632Z,13.38
2023-01-25T05:59:41.294Z,14.70
2023-01-25T06:02:07.941Z,11.05
2023-01-25T06:04:34.558Z,15.68
2023-01-25T06:07:01.325Z,13.48
2023-01-25T06:09:27.940Z,16.23
2023-01-25T06:11:54.506Z,14.32
2023-01-25T06:14:21.125Z,13.10
2023-01-25T06:16:47.694Z,14.57
2023-01-25T06:19:14.357Z,14.02
2023-01-25T06:21:40.985Z,14.50
2023-01-25T06:24:07.998Z,14.32
2023-01-25T06:26:34.641Z,11.60
2023-01-25T06:29:01.340Z,11.95
2023-01-25T06:31:28.050Z,12.32
2023-01-25T06:33:54.796Z,13.13
2023-01-25T06:36:22.648Z,13.38
2023-01-25T06:38:50.969Z,14.25
2023-01-25T06:41:18.483Z,13.48
2023-01-25T06:43:45.503Z,14.07
2023-01-25T06:46:12.548Z,14.93
2023-01-25T06:48:39.898Z,14.98
2023-01-25T06:51:10.105Z,11.88
2023-01-25T06:53:40.679Z,9.95
2023-01-25T06:56:11.824Z,11.32
2023-01-25T06:58:39.164Z,16.63
2023-01-25T07:01:11.415Z,15.77
2023-01-25T07:03:38.061Z,16.90
2023-01-25T07:06:07.811Z,17.50
2023-01-25T07:08:35.241Z,15.85
2023-01-25T07:11:05.246Z,15.20
2023-01-25T07:13:33.298Z,21.75
2023-01-25T07:16:05.557Z,20.55
2023-01-25T07:18:33.221Z,22.42
2023-01-25T07:21:05.255Z,19.25
2023-01-25T07:23:33.327Z,22.42
2023-01-25T07:26:00.658Z,20.35
2023-01-25T07:28:27.650Z,15.10
2023-01-25T07:30:54.279Z,11.07
2023-01-25T07:33:20.851Z,11.00
2023-01-25T07:35:48.170Z,10.95
2023-01-25T07:38:14.984Z,11.30
2023-01-25T07:40:41.550Z,12.98
2023-01-25T07:43:08.356Z,15.38
2023-01-25T07:45:35.002Z,15.63
2023-01-25T07:48:09.862Z,14.52
2023-01-25T07:50:36.523Z,14.98
2023-01-25T07:53:03.118Z,17.27
2023-01-25T07:55:30.569Z,12.02
2023-01-25T07:57:57.130Z,15.45
2023-01-25T08:00:24.986Z,13.32
2023-01-25T08:02:52.334Z,17.58
2023-01-25T08:05:19.798Z,20.67
2023-01-25T08:07:47.241Z,17.60
2023-01-25T08:10:14.202Z,17.60
2023-01-25T08:12:46.138Z,17.77
2023-01-25T08:15:14.111Z,17.13
2023-01-25T08:17:40.794Z,10.75
2023-01-25T08:20:08.719Z,16.67
2023-01-25T08:22:35.522Z,11.77
2023-01-25T08:25:04.090Z,10.73
2023-01-25T08:27:30.715Z,12.77
2023-01-25T08:29:57.339Z,12.68
2023-01-25T08:32:24.165Z,12.73
2023-01-25T08:34:50.826Z,13.00
2023-01-25T08:37:17.418Z,12.23
2023-01-25T08:39:44.088Z,13.00
2023-01-25T08:42:10.697Z,12.68
2023-01-25T08:44:37.291Z,15.30
2023-01-25T08:47:03.994Z,15.07
2023-01-25T08:49:31.644Z,15.35
2023-01-25T08:51:58.388Z,15.43
2023-01-25T08:54:24.991Z,13.57
2023-01-25T08:56:51.975Z,13.75
2023-01-25T08:59:18.619Z,15.52
2023-01-25T09:01:45.298Z,12.85
2023-01-25T09:04:11.871Z,13.65
2023-01-25T09:06:38.469Z,13.80
2023-01-25T09:09:05.130Z,12.98
2023-01-25T09:11:34.453Z,11.05
2023-01-25T09:14:01.037Z,11.02
2023-01-25T09:16:30.792Z,12.82
2023-01-25T09:18:59.683Z,11.27
2023-01-25T09:21:26.757Z,13.15
2023-01-25T09:24:09.971Z,13.32
2023-01-25T09:26:40.905Z,14.77
2023-01-25T09:29:10.746Z,12.77
2023-01-25T09:31:45.266Z,14.23
2023-01-25T09:34:13.944Z,15.63
2023-01-25T09:36:40.614Z,17.77
2023-01-25T09:39:07.712Z,17.55
2023-01-25T09:41:40.120Z,14.40
2023-01-25T09:44:28.391Z,14.63
2023-01-25T09:47:21.758Z,14.52
2023-01-25T09:50:26.944Z,15.30
2023-01-25T09:53:06.565Z,16.77
2023-01-25T09:55:33.812Z,12.13
2023-01-25T09:58:02.618Z,12.02
2023-01-25T10:00:35.885Z,12.27
2023-01-25T10:03:27.067Z,15.30
2023-01-25T10:05:57.825Z,16.13
2023-01-25T10:08:50.835Z,18.73
2023-01-25T10:11:25.926Z,16.23
2023-01-25T10:13:55.867Z,16.33
2023-01-25T10:16:39.961Z,17.67
2023-01-25T10:19:19.415Z,14.75
2023-01-25T10:21:53.415Z,15.93
2023-01-25T10:24:31.155Z,12.38
2023-01-25T10:27:03.455Z,12.63
2023-01-25T10:29:37.307Z,11.40
2023-01-25T10:32:26.227Z,11.02
2023-01-25T10:34:57.728Z,9.98
2023-01-25T10:37:30.693Z,13.70
2023-01-25T10:40:05.033Z,13.75
2023-01-25T10:42:38.285Z,9.70
2023-01-25T10:45:12.402Z,11.55
2023-01-25T10:47:42.640Z,14.57
2023-01-25T10:50:09.956Z,16.88
2023-01-25T10:52:38.754Z,14.98
2023-01-25T10:55:23.564Z,10.27
2023-01-25T10:57:57.684Z,14.63
2023-01-25T11:00:40.361Z,15.55
2023-01-25T11:03:20.465Z,14.48
2023-01-25T11:05:55.328Z,9.70
2023-01-25T11:08:23.531Z,13.23
2023-01-25T11:10:50.896Z,13.35
2023-01-25T11:13:21.026Z,13.00
2023-01-25T11:15:49.909Z,12.35
2023-01-25T11:18:29.386Z,12.90
2023-01-25T11:21:18.785Z,15.23
2023-01-25T11:23:59.886Z,14.43
2023-01-25T11:26:27.399Z,14.07
2023-01-25T11:29:18.384Z,12.50
2023-01-25T11:31:51.485Z,14.15
2023-01-25T11:34:25.424Z,13.95
2023-01-25T11:37:05.575Z,12.73
2023-01-25T11:39:38.122Z,14.07
2023-01-25T11:42:23.493Z,12.68
2023-01-25T11:45:09.005Z,11.75
2023-01-25T11:47:41.466Z,13.52
2023-01-25T11:50:31.100Z,12.88
2023-01-25T11:53:20.622Z,14.73
2023-01-25T11:56:00.342Z,12.98
2023-01-25T11:58:39.167Z,12.60
2023-01-25T12:01:36.111Z,13.52
2023-01-25T12:04:21.189Z,16.02
2023-01-25T12:06:59.060Z,13.68
2023-01-25T12:09:28.790Z,15.30
2023-01-25T12:12:33.182Z,13.77
2023-01-25T12:15:17.058Z,12.10
2023-01-25T12:18:13.212Z,14.18
2023-01-25T12:21:00.461Z,17.55
2023-01-25T12:23:41.969Z,15.57
2023-01-25T12:26:17.793Z,16.75
2023-01-25T12:28:57.146Z,13.10
2023-01-25T12:31:44.751Z,13.35
2023-01-25T12:34:22.041Z,11.07
2023-01-25T12:36:50.261Z,11.77
2023-01-25T12:39:27.479Z,11.10
2023-01-25T12:42:06.026Z,11.30
2023-01-25T12:44:48.442Z,14.43
2023-01-25T12:47:37.568Z,10.40
2023-01-25T12:50:21.602Z,10.82
2023-01-25T12:53:17.695Z,11.55
2023-01-25T12:55:45.206Z,13.60
2023-01-25T12:58:38.513Z,12.30
2023-01-25T13:01:17.415Z,12.60
2023-01-25T13:03:59.271Z,12.25
2023-01-25T13:06:36.795Z,13.23
2023-01-25T13:09:23.394Z,13.05
2023-01-25T13:11:50.306Z,14.88
2023-01-25T13:14:16.885Z,10.60
2023-01-25T13:17:01.478Z,12.20
2023-01-25T13:19:35.949Z,12.35
2023-01-25T13:22:02.566Z,13.85
2023-01-25T13:24:31.640Z,14.75
2023-01-25T13:27:24.066Z,14.90
2023-01-25T13:30:03.651Z,11.95
2023-01-25T13:32:33.325Z,13.00
2023-01-25T13:35:01.042Z,14.07
2023-01-25T13:37:35.730Z,14.30
2023-01-25T13:40:06.437Z,15.20
2023-01-25T13:42:35.084Z,14.23
2023-01-25T13:45:15.481Z,12.88
2023-01-25T13:47:44.043Z,11.25
2023-01-25T13:50:21.477Z,16.30
2023-01-25T13:53:01.485Z,13.93
2023-01-25T13:55:29.583Z,12.55
2023-01-25T13:58:18.379Z,12.35
2023-01-25T14:01:09.257Z,12.32
2023-01-25T14:03:47.605Z,14.82
2023-01-25T14:06:24.546Z,11.52
2023-01-25T14:08:53.027Z,13.73
2023-01-25T14:11:51.715Z,11.75
2023-01-25T14:14:28.820Z,13.70
2023-01-25T14:17:16.579Z,11.68
2023-01-25T14:20:21.678Z,9.10
2023-01-25T14:22:50.188Z,15.63
2023-01-25T14:25:18.119Z,15.75
2023-01-25T14:27:48.377Z,20.38
2023-01-25T14:30:22.583Z,21.23
2023-01-25T14:32:51.193Z,15.25
2023-01-25T14:35:43.261Z,14.23
2023-01-25T14:38:21.813Z,13.90
2023-01-25T14:40:50.391Z,11.75
2023-01-25T14:43:18.183Z,12.52
2023-01-25T14:45:45.188Z,12.23
2023-01-25T14:48:34.428Z,11.77
2023-01-25T14:51:28.628Z,10.85
2023-01-25T14:54:10.728Z,13.05
2023-01-25T14:56:49.245Z,11.63
2023-01-25T14:59:36.580Z,13.30
2023-01-25T15:02:26.160Z,11.00
2023-01-25T15:05:14.990Z,12.05
2023-01-25T15:07:58.691Z,13.02
2023-01-25T15:10:31.141Z,14.20
2023-01-25T15:13:13.533Z,12.60
2023-01-25T15:15:58.992Z,16.25
2023-01-25T15:18:42.340Z,16.35
2023-01-25T15:21:12.178Z,12.90
2023-01-25T15:23:42.210Z,14.80
2023-01-25T15:26:13.518Z,12.90
2023-01-25T15:28:40.063Z,15.88
2023-01-25T15:31:06.837Z,15.30
2023-01-25T15:33:34.626Z,14.23
2023-01-25T15:36:01.207Z,13.90
2023-01-25T15:38:27.809Z,16.55
2023-01-25T15:41:00.181Z,14.45
2023-01-25T15:43:26.786Z,13.27
2023-01-25T15:45:56.634Z,15.25
2023-01-25T15:48:35.671Z,18.77
2023-01-25T15:51:02.272Z,15.43
2023-01-25T15:53:28.877Z,12.50
2023-01-25T15:56:04.685Z,18.52
2023-01-25T15:58:35.130Z,16.38
2023-01-25T16:01:02.035Z,15.63
2023-01-25T16:03:30.143Z,13.23
2023-01-25T16:05:58.297Z,16.02
2023-01-25T16:08:24.954Z,16.00
2023-01-25T16:10:51.789Z,15.55
2023-01-25T16:13:18.343Z,16.88
2023-01-25T16:15:49.288Z,15.23
2023-01-25T16:18:15.840Z,15.63
2023-01-25T16:20:43.522Z,15.75
2023-01-25T16:23:11.894Z,19.27
2023-01-25T16:25:40.131Z,17.40
2023-01-25T16:28:09.624Z,16.55
2023-01-25T16:30:36.309Z,19.73
2023-01-25T16:33:02.927Z,17.20
2023-01-25T16:35:29.455Z,15.30
2023-01-25T16:37:56.837Z,16.90
2023-01-25T16:40:26.500Z,19.80
2023-01-25T16:42:53.072Z,16.88
2023-01-25T16:45:19.742Z,15.93
2023-01-25T16:47:47.697Z,17.98
2023-01-25T16:50:16.450Z,17.42
2023-01-25T16:52:44.851Z,15.23
2023-01-25T16:55:13.660Z,19.67
2023-01-25T16:57:42.599Z,21.02
2023-01-25T17:00:12.488Z,21.33
2023-01-25T17:02:46.831Z,15.73
2023-01-25T17:05:23.812Z,17.83
2023-01-25T17:07:51.360Z,16.95
2023-01-25T17:10:18.137Z,25.05
2023-01-25T17:12:45.769Z,19.58
2023-01-25T17:15:12.372Z,22.70
2023-01-25T17:17:38.906Z,21.20
2023-01-25T17:20:06.192Z,19.02
2023-01-25T17:22:37.240Z,18.70
2023-01-25T17:25:07.085Z,16.05
2023-01-25T17:27:33.687Z,18.33
2023-01-25T17:30:00.257Z,33.30
2023-01-25T17:32:27.044Z,24.42
2023-01-25T17:34:53.697Z,23.02
2023-01-25T17:37:20.381Z,21.15
2023-01-25T17:39:47.611Z,19.88
2023-01-25T17:42:14.596Z,20.45
2023-01-25T17:44:41.316Z,15.77
2023-01-25T17:47:07.901Z,20.35
2023-01-25T17:49:34.501Z,19.70
2023-01-25T17:52:02.670Z,15.23
2023-01-25T17:54:29.292Z,15.68
2023-01-25T17:56:56.360Z,13.43
2023-01-25T17:59:23.063Z,19.25
2023-01-25T18:01:50.456Z,19.13
2023-01-25T18:04:17.544Z,18.50
2023-01-25T18:06:44.341Z,22.75
2023-01-25T18:09:10.959Z,15.73
2023-01-25T18:11:40.660Z,21.17
2023-01-25T18:14:12.453Z,23.92
2023-01-25T18:16:40.706Z,17.88
2023-01-25T18:19:08.378Z,20.15
2023-01-25T18:21:36.539Z,23.02
2023-01-25T18:24:33.920Z,20.55
2023-01-25T18:27:22.250Z,19.73
2023-01-25T18:30:02.376Z,20.10
2023-01-25T18:32:30.332Z,24.33
2023-01-25T18:34:56.985Z,20.52
2023-01-25T18:37:27.834Z,22.10
2023-01-25T18:39:55.722Z,22.60
2023-01-25T18:42:24.544Z,24.50
2023-01-25T18:44:51.275Z,22.08
2023-01-25T18:47:19.363Z,19.38
2023-01-25T18:49:47.629Z,22.08
2023-01-25T18:52:14.361Z,20.83
2023-01-25T18:54:40.925Z,22.00
2023-01-25T18:57:09.135Z,20.40
2023-01-25T18:59:35.806Z,22.02
2023-01-25T19:02:02.498Z,22.58
2023-01-25T19:04:29.398Z,24.05
2023-01-25T19:07:01.267Z,21.70
2023-01-25T19:09:28.431Z,17.23
2023-01-25T19:11:55.545Z,23.70
2023-01-25T19:14:23.137Z,23.02
2023-01-25T19:16:50.386Z,22.80
2023-01-25T19:19:17.543Z,25.60
2023-01-25T19:21:44.246Z,20.25
2023-01-25T19:24:12.602Z,23.85
2023-01-25T19:26:40.076Z,24.92
2023-01-25T19:29:07.788Z,25.15
2023-01-25T19:31:37.115Z,23.20
2023-01-25T19:34:06.262Z,19.77
2023-01-25T19:36:35.886Z,27.15
2023-01-25T19:39:03.877Z,23.23
2023-01-25T19:41:31.249Z,27.63
2023-01-25T19:43:59.927Z,25.20
2023-01-25T19:46:30.229Z,23.17
2023-01-25T19:48:57.803Z,28.65
2023-01-25T19:51:29.911Z,26.58
2023-01-25T19:56:28.922Z,22.00
2023-01-25T19:58:55.733Z,23.45
2023-01-25T20:01:24.699Z,24.75
2023-01-25T20:03:52.688Z,26.02
2023-01-25T20:06:21.094Z,27.13
2023-01-25T20:08:48.282Z,26.77
2023-01-25T20:11:24.379Z,24.05
2023-01-25T20:13:54.324Z,25.25
2023-01-25T20:16:21.836Z,27.55
2023-01-25T20:18:49.453Z,25.40
2023-01-25T20:21:23.781Z,29.40
2023-01-25T20:23:54.920Z,23.65
2023-01-25T20:26:23.912Z,32.50
2023-01-25T20:28:52.359Z,27.75
2023-01-25T20:31:23.833Z,35.20
2023-01-25T20:33:53.115Z,32.20
2023-01-25T20:36:20.019Z,37.58
2023-01-25T20:38:47.272Z,31.60
2023-01-25T20:41:16.810Z,35.45
2023-01-25T20:43:51.919Z,32.47
2023-01-25T20:46:19.772Z,38.22
2023-01-25T20:48:46.442Z,29.80
2023-01-25T20:51:16.761Z,26.65
2023-01-25T20:53:45.514Z,31.85
2023-01-25T20:56:13.298Z,32.13
2023-01-25T20:58:40.000Z,32.58
2023-01-25T21:01:20.513Z,33.80
2023-01-25T21:03:47.869Z,36.72
2023-01-25T21:06:15.296Z,38.67
2023-01-25T21:08:42.594Z,34.10
2023-01-25T21:11:09.855Z,31.95
2023-01-25T21:13:36.508Z,29.88
2023-01-25T21:16:10.009Z,32.50
2023-01-25T21:18:37.909Z,33.65
2023-01-25T21:21:12.889Z,38.33
2023-01-25T21:23:41.805Z,33.88
2023-01-25T21:26:13.014Z,33.42
2023-01-25T21:28:39.703Z,38.70
2023-01-25T21:31:20.684Z,30.17
2023-01-25T21:33:48.263Z,36.75
2023-01-25T21:36:19.365Z,38.20
2023-01-25T21:38:48.358Z,40.73
2023-01-25T21:41:19.683Z,35.78
2023-01-25T21:44:05.663Z,37.85
2023-01-25T21:46:32.334Z,44.03
2023-01-25T21:49:19.985Z,41.55
2023-01-25T21:51:51.984Z,40.30
2023-01-25T21:56:46.984Z,42.03
2023-01-25T21:59:14.001Z,43.95
2023-01-25T22:01:40.607Z,48.08
2023-01-25T22:04:07.214Z,42.35
2023-01-25T22:06:33.872Z,52.92
2023-01-25T22:09:00.655Z,42.78
2023-01-25T22:11:27.310Z,42.70
2023-01-25T22:13:54.721Z,44.42
2023-01-25T22:16:21.686Z,45.55
2023-01-25T22:18:49.032Z,46.40
2023-01-25T22:21:23.701Z,45.72
2023-01-25T22:23:51.259Z,47.55
2023-01-25T22:26:20.245Z,43.88
2023-01-25T22:28:49.836Z,56.00
2023-01-25T22:31:21.824Z,51.65
2023-01-25T22:36:17.902Z,40.15
2023-01-25T22:38:44.593Z,50.22
2023-01-25T22:41:16.282Z,47.08
2023-01-25T22:43:44.815Z,51.78
2023-01-25T22:46:14.897Z,49.97
2023-01-25T22:48:41.542Z,55.83
2023-01-25T22:51:15.208Z,49.83
2023-01-25T22:53:42.213Z,49.85
2023-01-25T22:56:15.598Z,47.85
2023-01-25T22:58:43.674Z,50.28
2023-01-25T23:01:12.648Z,46.72
2023-01-25T23:03:39.538Z,45.63
2023-01-25T23:06:13.819Z,46.03
2023-01-25T23:08:40.926Z,42.35
2023-01-25T23:11:16.502Z,44.75
2023-01-25T23:14:06.920Z,47.20
2023-01-25T23:16:36.449Z,45.47
2023-01-25T23:19:04.955Z,48.67
2023-01-25T23:21:32.239Z,45.08
2023-01-25T23:24:02.967Z,53.90
2023-01-25T23:26:37.693Z,63.13
2023-01-25T23:29:10.633Z,79.57
2023-01-25T23:31:37.608Z,51.90
2023-01-25T23:34:06.074Z,51.85
2023-01-25T23:36:41.702Z,49.55
2023-01-25T23:39:11.003Z,50.75
2023-01-25T23:41:37.568Z,47.15
2023-01-25T23:44:04.266Z,49.30
2023-01-25T23:46:31.014Z,46.30
2023-01-25T23:48:57.632Z,45.47
2023-01-25T23:51:24.381Z,52.10
2023-01-25T23:53:53.270Z,44.63
2023-01-25T23:56:21.345Z,52.05
2023-01-25T23:58:48.394Z,50.17
